Time;durP1;ratioP1;P1;durP2;ratioP2;P2;SDS_P1;SDS_P2;PMS_P1;PMS_P2;Temp;Humidity;BMP_temperature;BMP_pressure;BME280_temperature;BME280_humidity;BME280_pressure;Samples;Min_cycle;Max_cycle;Signal;HPM_P1;HPM_P2
2021/06/09 00:01:44;;;;;;;65.80;29.87;;;;;;;;;;5236887;27;20084;-88
2021/06/09 00:04:13;;;;;;;59.22;30.67;;;;;;;;;;5206582;27;20041;-88
2021/06/09 00:06:41;;;;;;;62.50;31.80;;;;;;;;;;5238779;27;20554;-88
2021/06/09 00:09:12;;;;;;;66.28;31.73;;;;;;;;;;5206326;27;20073;-88
2021/06/09 00:11:41;;;;;;;44.45;26.70;;;;;;;;;;5237934;27;20045;-88
2021/06/09 00:14:14;;;;;;;55.15;28.98;;;;;;;;;;5200266;27;20054;-88
2021/06/09 00:16:44;;;;;;;59.28;28.27;;;;;;;;;;5202773;27;20032;-87
2021/06/09 00:19:15;;;;;;;59.33;28.40;;;;;;;;;;5221566;27;20460;-89
2021/06/09 00:21:47;;;;;;;58.83;27.75;;;;;;;;;;5202062;27;20061;-86
2021/06/09 00:24:19;;;;;;;;;;;;;;;;;;5201938;27;20038;-88
2021/06/09 00:26:51;;;;;;;53.38;22.37;;;;;;;;;;5201588;27;20401;-86
2021/06/09 00:29:21;;;;;;;52.45;21.05;;;;;;;;;;5212772;27;20025;-85
2021/06/09 00:31:51;;;;;;;41.95;21.02;;;;;;;;;;5225036;27;20026;-87
2021/06/09 00:34:21;;;;;;;43.95;22.50;;;;;;;;;;5216379;27;20368;-86
2021/06/09 00:37:02;;;;;;;46.05;20.30;;;;;;;;;;5197558;27;20040;-85
2021/06/09 00:39:31;;;;;;;48.58;29.73;;;;;;;;;;5224934;27;20040;-86
2021/06/09 00:42:00;;;;;;;53.20;29.37;;;;;;;;;;5204054;27;20026;-86
2021/06/09 00:44:31;;;;;;;57.17;27.42;;;;;;;;;;5214334;27;20057;-86
2021/06/09 00:47:00;;;;;;;67.28;27.00;;;;;;;;;;5239273;27;20058;-86
2021/06/09 00:49:31;;;;;;;53.25;26.37;;;;;;;;;;5241896;27;20029;-87
2021/06/09 00:52:06;;;;;;;56.80;26.92;;;;;;;;;;5193395;27;20326;-87
2021/06/09 00:54:35;;;;;;;47.53;26.58;;;;;;;;;;5206849;27;20461;-88
2021/06/09 00:57:04;;;;;;;47.42;25.60;;;;;;;;;;5202377;27;20172;-86
2021/06/09 00:59:37;;;;;;;55.65;27.08;;;;;;;;;;5207401;27;20057;-86
2021/06/09 01:02:06;;;;;;;50.30;26.12;;;;;;;;;;5229723;27;20070;-86
2021/06/09 01:04:37;;;;;;;46.67;23.50;;;;;;;;;;5194009;27;20044;-85
2021/06/09 01:07:09;;;;;;;51.78;22.65;;;;;;;;;;5223807;27;20380;-86
2021/06/09 01:09:40;;;;;;;54.33;21.87;;;;;;;;;;5219268;27;20487;-86
2021/06/09 01:12:12;;;;;;;53.38;21.35;;;;;;;;;;5240887;27;20042;-86
2021/06/09 01:14:43;;;;;;;48.25;22.95;;;;;;;;;;5187298;27;20026;-86
2021/06/09 01:17:16;;;;;;;61.40;22.90;;;;;;;;;;5225348;27;20039;-85
2021/06/09 01:19:47;;;;;;;61.37;29.77;;;;;;;;;;5224013;27;20534;-86
2021/06/09 01:22:16;;;;;;;68.53;29.95;;;;;;;;;;5228380;27;20084;-87
2021/06/09 01:24:45;;;;;;;58.10;29.23;;;;;;;;;;5219401;27;20025;-87
2021/06/09 01:27:15;;;;;;;59.78;27.85;;;;;;;;;;5227260;27;20049;-85
2021/06/09 01:29:44;;;;;;;69.60;28.15;;;;;;;;;;5206806;27;20030;-86
2021/06/09 01:32:16;;;;;;;73.68;27.20;;;;;;;;;;5229639;27;20034;-86
2021/06/09 01:34:47;;;;;;;60.95;27.45;;;;;;;;;;5219841;27;20066;-86
2021/06/09 01:37:16;;;;;;;68.68;26.52;;;;;;;;;;5208064;27;20380;-87
2021/06/09 01:39:45;;;;;;;56.25;28.50;;;;;;;;;;5223194;27;20157;-87
2021/06/09 01:42:14;;;;;;;56.22;27.58;;;;;;;;;;5239723;27;20079;-86
2021/06/09 01:44:42;;;;;;;47.75;20.37;;;;;;;;;;5201952;27;20060;-87
2021/06/09 01:47:13;;;;;;;65.35;21.40;;;;;;;;;;5210953;27;20475;-87
2021/06/09 01:49:42;;;;;;;53.60;21.30;;;;;;;;;;5243971;27;20053;-87
2021/06/09 01:52:13;;;;;;;46.58;20.27;;;;;;;;;;5193580;27;20064;-87
2021/06/09 01:54:44;;;;;;;50.42;20.27;;;;;;;;;;5193491;27;20049;-86
2021/06/09 01:57:16;;;;;;;55.53;26.30;;;;;;;;;;5209806;27;20632;-88
2021/06/09 01:59:48;;;;;;;62.83;30.77;;;;;;;;;;5190614;27;20069;-88
2021/06/09 02:02:20;;;;;;;60.38;26.90;;;;;;;;;;5213892;27;20015;-87
2021/06/09 02:04:57;;;;;;;58.75;27.13;;;;;;;;;;5213949;27;20038;-87
2021/06/09 02:07:34;;;;;;;62.03;27.25;;;;;;;;;;5228094;27;20022;-87
2021/06/09 02:10:08;;;;;;;60.53;29.40;;;;;;;;;;5200717;27;20111;-87
2021/06/09 02:12:39;;;;;;;58.38;28.92;;;;;;;;;;5204293;27;20058;-87
2021/06/09 02:15:11;;;;;;;64.15;30.62;;;;;;;;;;5211577;27;20361;-87
2021/06/09 02:17:57;;;;;;;51.95;28.42;;;;;;;;;;5217458;27;20052;-85
2021/06/09 02:20:48;;;;;;;52.95;26.75;;;;;;;;;;5216944;27;20570;-85
2021/06/09 02:23:18;;;;;;;64.62;27.98;;;;;;;;;;5214898;27;20071;-86
2021/06/09 02:25:54;;;;;;;66.60;24.02;;;;;;;;;;5197124;27;20570;-85
2021/06/09 02:28:23;;;;;;;68.50;23.50;;;;;;;;;;5217254;27;20542;-87
2021/06/09 02:30:54;;;;;;;48.17;21.30;;;;;;;;;;5203732;27;20697;-86
2021/06/09 02:33:26;;;;;;;49.05;21.33;;;;;;;;;;5203281;27;20088;-87
2021/06/09 02:36:00;;;;;;;69.85;21.80;;;;;;;;;;5221694;27;20502;-86
2021/06/09 02:38:38;;;;;;;67.47;30.02;;;;;;;;;;5215929;27;20080;-86
2021/06/09 02:41:08;;;;;;;56.47;25.90;;;;;;;;;;5235787;27;20080;-86
2021/06/09 02:43:39;;;;;;;53.38;25.52;;;;;;;;;;5247635;27;20037;-86
2021/06/09 02:46:13;;;;;;;58.28;26.33;;;;;;;;;;5227593;27;20031;-85
2021/06/09 02:48:43;;;;;;;55.90;27.17;;;;;;;;;;5221989;27;20021;-86
2021/06/09 02:51:17;;;;;;;55.60;26.25;;;;;;;;;;5238173;27;20464;-86
2021/06/09 02:53:57;;;;;;;56.08;26.23;;;;;;;;;;5221367;27;20362;-88
2021/06/09 02:56:36;;;;;;;58.20;25.98;;;;;;;;;;5238956;27;20033;-88
2021/06/09 02:59:10;;;;;;;65.60;26.33;;;;;;;;;;5195741;27;20073;-86
2021/06/09 03:01:58;;;;;;;64.53;28.25;;;;;;;;;;5202771;27;20049;-87
2021/06/09 03:04:44;;;;;;;61.80;20.42;;;;;;;;;;5205932;27;20470;-87
2021/06/09 03:07:34;;;;;;;67.93;22.37;;;;;;;;;;5199572;27;20054;-87
2021/06/09 03:27:50;;;;;;;52.13;25.17;;;;;;;;;;5189064;27;20030;-84
2021/06/09 03:30:21;;;;;;;72.50;27.58;;;;;;;;;;5169759;27;20066;-86
2021/06/09 03:32:52;;;;;;;63.58;26.10;;;;;;;;;;5173321;27;20053;-85
2021/06/09 03:35:30;;;;;;;57.75;27.98;;;;;;;;;;5170718;27;20034;-86
2021/06/09 03:38:00;;;;;;;53.97;27.95;;;;;;;;;;5167507;27;20749;-84
2021/06/09 03:40:32;;;;;;;55.03;27.62;;;;;;;;;;5170769;27;20034;-84
2021/06/09 03:43:05;;;;;;;66.18;27.75;;;;;;;;;;5183339;27;20545;-84
2021/06/09 03:45:41;;;;;;;51.15;21.12;;;;;;;;;;5179512;27;20051;-84
2021/06/09 03:48:12;;;;;;;61.20;22.05;;;;;;;;;;5159411;27;20186;-83
2021/06/09 03:50:46;;;;;;;50.50;19.67;;;;;;;;;;5174514;27;20049;-85
2021/06/09 03:53:15;;;;;;;50.72;19.92;;;;;;;;;;5179820;27;20026;-88
2021/06/09 03:55:47;;;;;;;68.97;21.50;;;;;;;;;;5170566;27;20077;-89
2021/06/09 03:58:19;;;;;;;58.42;27.13;;;;;;;;;;5171927;27;20022;-88
2021/06/09 04:00:52;;;;;;;50.60;26.62;;;;;;;;;;5195050;27;20030;-85
2021/06/09 04:03:21;;;;;;;52.08;23.33;;;;;;;;;;5203438;27;20392;-84
2021/06/09 04:05:51;;;;;;;59.17;24.33;;;;;;;;;;5180761;27;20041;-86
2021/06/09 04:08:20;;;;;;;56.80;25.37;;;;;;;;;;5180052;27;20081;-86
2021/06/09 04:10:53;;;;;;;62.05;24.42;;;;;;;;;;5177885;27;20038;-84
2021/06/09 04:13:26;;;;;;;51.10;24.17;;;;;;;;;;5186091;27;20319;-85
2021/06/09 04:16:01;;;;;;;51.80;25.98;;;;;;;;;;5209815;27;20508;-84
2021/06/09 04:18:32;;;;;;;64.95;26.00;;;;;;;;;;5190667;27;20045;-86
2021/06/09 04:21:02;;;;;;;53.03;25.15;;;;;;;;;;5173273;27;20036;-86
2021/06/09 04:23:33;;;;;;;56.28;25.52;;;;;;;;;;5187364;27;20081;-85
2021/06/09 04:26:02;;;;;;;50.92;21.27;;;;;;;;;;5213300;27;20371;-85
2021/06/09 04:28:31;;;;;;;58.72;20.80;;;;;;;;;;5221830;27;20596;-85
2021/06/09 04:31:04;;;;;;;46.30;19.58;;;;;;;;;;5189224;27;20036;-87
2021/06/09 04:33:35;;;;;;;44.97;19.55;;;;;;;;;;5182668;27;20061;-85
2021/06/09 04:36:04;;;;;;;59.05;21.92;;;;;;;;;;5186543;27;20065;-85
2021/06/09 04:38:33;;;;;;;47.40;24.10;;;;;;;;;;5171520;27;20030;-86
2021/06/09 04:41:05;;;;;;;58.65;23.92;;;;;;;;;;5205130;27;20022;-86
2021/06/09 04:43:36;;;;;;;58.67;23.38;;;;;;;;;;5198647;27;20034;-85
2021/06/09 04:46:08;;;;;;;58.83;23.40;;;;;;;;;;5172924;27;20085;-86
2021/06/09 04:48:39;;;;;;;62.83;26.52;;;;;;;;;;5200687;27;20042;-86
2021/06/09 04:51:09;;;;;;;56.05;26.60;;;;;;;;;;5198994;27;20377;-84
2021/06/09 04:53:42;;;;;;;52.13;25.92;;;;;;;;;;5185665;27;20077;-86
2021/06/09 04:56:11;;;;;;;60.60;27.10;;;;;;;;;;5173014;27;20050;-87
2021/06/09 04:58:42;;;;;;;50.05;24.37;;;;;;;;;;5176295;27;20049;-86
2021/06/09 05:01:14;;;;;;;58.35;26.10;;;;;;;;;;5204352;27;20338;-87
2021/06/09 05:03:43;;;;;;;56.55;26.42;;;;;;;;;;5187330;27;20472;-85
2021/06/09 05:06:15;;;;;;;48.38;19.73;;;;;;;;;;5191165;27;20154;-86
2021/06/09 05:08:43;;;;;;;53.63;22.25;;;;;;;;;;5198006;27;20449;-86
2021/06/09 05:11:16;;;;;;;50.33;21.45;;;;;;;;;;5183825;27;20030;-87
2021/06/09 05:13:53;;;;;;;54.55;22.27;;;;;;;;;;5191539;27;20041;-86
2021/06/09 05:16:22;;;;;;;60.05;23.62;;;;;;;;;;5195686;27;20027;-85
2021/06/09 05:18:56;;;;;;;62.90;23.45;;;;;;;;;;5199377;27;20038;-85
2021/06/09 05:21:30;;;;;;;66.70;23.40;;;;;;;;;;5197703;27;20068;-86
2021/06/09 05:24:02;;;;;;;53.33;21.65;;;;;;;;;;5208478;27;20022;-86
2021/06/09 05:26:33;;;;;;;58.63;23.80;;;;;;;;;;5196931;27;20178;-87
2021/06/09 05:29:06;;;;;;;48.03;21.10;;;;;;;;;;5176206;27;20224;-86
2021/06/09 05:31:38;;;;;;;56.53;22.13;;;;;;;;;;5178299;27;20061;-86
2021/06/09 05:34:08;;;;;;;62.05;22.35;;;;;;;;;;5179049;27;20022;-86
2021/06/09 05:36:39;;;;;;;50.58;21.10;;;;;;;;;;5191831;27;20069;-87
2021/06/09 05:39:10;;;;;;;48.60;21.87;;;;;;;;;;5178307;27;20027;-86
2021/06/09 05:41:43;;;;;;;57.33;21.95;;;;;;;;;;5196853;27;20022;-86
2021/06/09 05:44:18;;;;;;;52.75;22.08;;;;;;;;;;5176543;27;20436;-86
2021/06/09 05:46:49;;;;;;;58.45;22.87;;;;;;;;;;5186454;27;20073;-86
2021/06/09 05:49:21;;;;;;;61.05;22.70;;;;;;;;;;5176147;27;20477;-86
2021/06/09 05:51:53;;;;;;;56.53;22.13;;;;;;;;;;5219618;27;20057;-87
2021/06/09 05:54:24;;;;;;;53.63;22.70;;;;;;;;;;5204902;27;20411;-86
2021/06/09 05:56:55;;;;;;;62.78;23.70;;;;;;;;;;5196695;27;20067;-86
2021/06/09 05:59:24;;;;;;;54.88;21.70;;;;;;;;;;5177581;27;20061;-85
2021/06/09 06:01:53;;;;;;;64.05;22.80;;;;;;;;;;5185618;27;20026;-85
2021/06/09 06:04:26;;;;;;;50.42;20.88;;;;;;;;;;5219191;27;20054;-86
2021/06/09 06:06:55;;;;;;;64.65;22.20;;;;;;;;;;5193499;27;20031;-86
2021/06/09 06:09:27;;;;;;;67.28;23.25;;;;;;;;;;5197769;27;20054;-86
2021/06/09 06:11:56;;;;;;;74.30;23.27;;;;;;;;;;5205954;27;20069;-85
2021/06/09 06:14:25;;;;;;;51.25;21.15;;;;;;;;;;5185015;27;20037;-86
2021/06/09 06:16:57;;;;;;;68.70;21.85;;;;;;;;;;5217842;27;20074;-87
2021/06/09 06:19:36;;;;;;;71.68;22.83;;;;;;;;;;5200003;27;20416;-86
2021/06/09 06:22:11;;;;;;;70.55;22.85;;;;;;;;;;5182523;27;20037;-87
2021/06/09 06:24:40;;;;;;;65.95;22.55;;;;;;;;;;5182259;27;20411;-86
2021/06/09 06:27:10;;;;;;;63.13;21.98;;;;;;;;;;5221682;27;20067;-86
2021/06/09 06:29:38;;;;;;;65.05;22.98;;;;;;;;;;5172277;27;20375;-85
2021/06/09 06:32:10;;;;;;;57.58;23.00;;;;;;;;;;5210401;27;20494;-86
2021/06/09 06:34:50;;;;;;;66.10;22.13;;;;;;;;;;5183186;27;20353;-85
2021/06/09 06:37:20;;;;;;;68.00;22.83;;;;;;;;;;5205683;27;20026;-85
2021/06/09 06:39:55;;;;;;;62.88;23.40;;;;;;;;;;5202725;27;20033;-84
2021/06/09 06:42:23;;;;;;;62.13;23.17;;;;;;;;;;5186372;27;20029;-86
2021/06/09 06:44:54;;;;;;;61.53;23.08;;;;;;;;;;5209707;27;20028;-85
2021/06/09 06:47:26;;;;;;;55.53;22.25;;;;;;;;;;5188990;27;20431;-86
2021/06/09 06:49:58;;;;;;;68.40;21.92;;;;;;;;;;5181735;27;20036;-85
2021/06/09 06:52:31;;;;;;;67.72;21.98;;;;;;;;;;5208961;27;20121;-83
2021/06/09 06:55:05;;;;;;;54.67;20.85;;;;;;;;;;5225761;27;20025;-86
2021/06/09 06:57:37;;;;;;;57.00;21.87;;;;;;;;;;5224899;27;20653;-85
2021/06/09 07:00:12;;;;;;;46.90;21.50;;;;;;;;;;5200845;27;20060;-84
2021/06/09 07:02:46;;;;;;;56.42;20.75;;;;;;;;;;5185621;27;20060;-84
2021/06/09 07:05:18;;;;;;;54.72;20.92;;;;;;;;;;5222181;27;20018;-84
2021/06/09 07:07:50;;;;;;;61.13;21.70;;;;;;;;;;5226842;27;20070;-85
2021/06/09 07:10:22;;;;;;;49.85;20.55;;;;;;;;;;5206466;27;20018;-84
2021/06/09 07:12:58;;;;;;;52.45;19.52;;;;;;;;;;5199591;27;20018;-85
2021/06/09 07:15:29;;;;;;;51.70;21.10;;;;;;;;;;5185957;27;20411;-85
2021/06/09 07:18:02;;;;;;;61.17;21.17;;;;;;;;;;5224267;27;20081;-84
2021/06/09 07:20:31;;;;;;;54.15;20.20;;;;;;;;;;5204460;27;20065;-85
2021/06/09 07:23:00;;;;;;;48.92;19.70;;;;;;;;;;5204667;27;20334;-85
2021/06/09 07:25:32;;;;;;;50.58;20.17;;;;;;;;;;5200232;27;20026;-86
2021/06/09 07:28:04;;;;;;;55.53;20.10;;;;;;;;;;5222824;27;20046;-85
2021/06/09 07:30:38;;;;;;;48.97;18.92;;;;;;;;;;5216499;27;20053;-85
2021/06/09 07:33:13;;;;;;;46.13;19.25;;;;;;;;;;5185164;27;20058;-85
2021/06/09 07:35:44;;;;;;;42.20;18.15;;;;;;;;;;5205774;27;20060;-86
2021/06/09 07:38:19;;;;;;;46.37;19.70;;;;;;;;;;5205991;27;20061;-84
2021/06/09 07:40:52;;;;;;;52.83;19.73;;;;;;;;;;5196977;27;20048;-87
2021/06/09 07:43:29;;;;;;;47.47;18.77;;;;;;;;;;5222958;27;20461;-85
2021/06/09 07:45:58;;;;;;;46.40;18.92;;;;;;;;;;5205747;27;20420;-87
2021/06/09 07:48:29;;;;;;;51.88;20.08;;;;;;;;;;5219783;27;20099;-87
2021/06/09 07:51:05;;;;;;;54.65;19.33;;;;;;;;;;5181649;27;20058;-85
2021/06/09 07:53:35;;;;;;;46.85;19.05;;;;;;;;;;5221061;27;20088;-85
2021/06/09 07:56:05;;;;;;;47.17;19.15;;;;;;;;;;5185167;27;20034;-84
2021/06/09 07:58:37;;;;;;;42.05;18.58;;;;;;;;;;5177599;27;20393;-85
2021/06/09 08:01:05;;;;;;;60.92;20.10;;;;;;;;;;5182076;27;20057;-86
2021/06/09 08:03:39;;;;;;;44.75;19.08;;;;;;;;;;5183836;27;20433;-85
2021/06/09 08:06:08;;;;;;;38.15;18.70;;;;;;;;;;5183950;27;20447;-87
2021/06/09 08:08:39;;;;;;;45.33;18.75;;;;;;;;;;5205560;27;20065;-86
2021/06/09 08:11:08;;;;;;;46.70;18.90;;;;;;;;;;5183024;27;20027;-85
2021/06/09 08:13:39;;;;;;;34.20;16.80;;;;;;;;;;5223186;27;20069;-84
2021/06/09 08:16:15;;;;;;;42.90;24.35;;;;;;;;;;5186062;27;20057;-86
2021/06/09 08:18:47;;;;;;;49.88;25.62;;;;;;;;;;5223960;27;20049;-83
2021/06/09 08:21:34;;;;;;;61.17;27.42;;;;;;;;;;5189352;27;20435;-86
2021/06/09 08:24:06;;;;;;;47.72;24.33;;;;;;;;;;5186509;27;20055;-86
2021/06/09 08:26:35;;;;;;;40.35;24.27;;;;;;;;;;5184531;27;20062;-87
2021/06/09 08:29:08;;;;;;;34.55;18.45;;;;;;;;;;5202144;27;20056;-86
2021/06/09 08:31:39;;;;;;;39.72;18.70;;;;;;;;;;5198831;27;20049;-84
2021/06/09 08:34:11;;;;;;;56.22;21.52;;;;;;;;;;5180879;27;20069;-85
2021/06/09 08:36:44;;;;;;;52.40;29.52;;;;;;;;;;5181660;27;20065;-86
2021/06/09 08:39:15;;;;;;;42.17;21.10;;;;;;;;;;5221883;27;20061;-85
2021/06/09 08:41:47;;;;;;;47.50;26.73;;;;;;;;;;5185932;27;20090;-85
2021/06/09 08:44:18;;;;;;;40.22;24.98;;;;;;;;;;5184791;27;20459;-86
2021/06/09 08:46:52;;;;;;;44.67;25.75;;;;;;;;;;5184151;27;20060;-87
2021/06/09 08:49:25;;;;;;;46.50;26.27;;;;;;;;;;5178786;27;20054;-85
2021/06/09 08:52:03;;;;;;;42.83;25.40;;;;;;;;;;5201383;27;20076;-84
2021/06/09 08:54:35;;;;;;;50.85;28.65;;;;;;;;;;5192682;27;20066;-85
2021/06/09 08:57:09;;;;;;;48.42;30.05;;;;;;;;;;5204291;27;20353;-84
2021/06/09 08:59:44;;;;;;;34.45;22.92;;;;;;;;;;5187194;27;20052;-86
2021/06/09 09:02:20;;;;;;;32.95;19.70;;;;;;;;;;5186952;27;20069;-84
2021/06/09 09:04:49;;;;;;;23.30;6.65;;;;;;;;;;5181011;27;20176;-85
2021/06/09 09:07:24;;;;;;;19.30;5.07;;;;;;;;;;5172634;27;20456;-85
2021/06/09 09:10:01;;;;;;;21.42;4.82;;;;;;;;;;5216951;27;20457;-85
2021/06/09 09:12:34;;;;;;;19.50;5.05;;;;;;;;;;5185809;27;20112;-86
2021/06/09 09:15:07;;;;;;;27.52;6.00;;;;;;;;;;5200854;27;20397;-85
2021/06/09 09:17:59;;;;;;;15.98;4.90;;;;;;;;;;5199715;27;20073;-86
2021/06/09 09:20:39;;;;;;;32.88;6.57;;;;;;;;;;5170947;27;20538;-86
2021/06/09 09:23:20;;;;;;;12.60;4.35;;;;;;;;;;5183292;27;20097;-85
2021/06/09 09:26:01;;;;;;;23.12;5.05;;;;;;;;;;5199944;27;20092;-86
2021/06/09 09:28:33;;;;;;;26.20;5.40;;;;;;;;;;5208206;27;20030;-85
2021/06/09 09:31:23;;;;;;;15.90;4.78;;;;;;;;;;5184529;27;20041;-86
2021/06/09 09:34:23;;;;;;;18.20;5.20;;;;;;;;;;5203522;27;20583;-84
2021/06/09 09:37:03;;;;;;;16.02;5.00;;;;;;;;;;5207047;27;20048;-84
2021/06/09 09:39:38;;;;;;;17.73;5.25;;;;;;;;;;5225824;27;20022;-86
2021/06/09 09:42:20;;;;;;;14.45;4.15;;;;;;;;;;5180330;27;20112;-85
2021/06/09 09:44:50;;;;;;;18.12;5.10;;;;;;;;;;5200735;27;20049;-85
2021/06/09 09:47:23;;;;;;;19.95;5.10;;;;;;;;;;5204990;27;20045;-86
2021/06/09 09:49:57;;;;;;;15.23;4.62;;;;;;;;;;5221315;27;20065;-85
2021/06/09 09:52:25;;;;;;;18.90;5.03;;;;;;;;;;5197163;27;20062;-84
2021/06/09 09:55:08;;;;;;;18.05;5.18;;;;;;;;;;5217894;27;20027;-85
2021/06/09 09:57:39;;;;;;;15.27;4.80;;;;;;;;;;5221974;27;20034;-86
2021/06/09 10:00:10;;;;;;;18.02;5.32;;;;;;;;;;5209118;27;20068;-84
2021/06/09 10:02:44;;;;;;;20.20;4.78;;;;;;;;;;5202864;27;20320;-86
2021/06/09 10:05:15;;;;;;;18.25;4.68;;;;;;;;;;5185404;27;20269;-84
2021/06/09 10:08:03;;;;;;;19.62;4.68;;;;;;;;;;5225676;27;20033;-84
2021/06/09 10:10:34;;;;;;;14.43;4.47;;;;;;;;;;5179524;27;20154;-85
2021/06/09 10:13:16;;;;;;;15.30;4.57;;;;;;;;;;5205840;27;20429;-85
2021/06/09 10:15:48;;;;;;;16.87;5.12;;;;;;;;;;5199823;27;20077;-85
2021/06/09 10:18:24;;;;;;;14.40;5.05;;;;;;;;;;5221779;27;20054;-86
2021/06/09 10:20:56;;;;;;;14.02;4.18;;;;;;;;;;5203737;27;20049;-86
2021/06/09 10:23:38;;;;;;;11.80;3.90;;;;;;;;;;5188514;27;20049;-84
2021/06/09 10:26:11;;;;;;;13.62;3.85;;;;;;;;;;5183357;27;20082;-85
2021/06/09 10:29:00;;;;;;;17.35;4.45;;;;;;;;;;5182490;27;20082;-88
2021/06/09 10:31:32;;;;;;;12.18;3.72;;;;;;;;;;5149516;27;20090;-85
2021/06/09 10:34:02;;;;;;;13.45;3.47;;;;;;;;;;5161988;27;20084;-83
2021/06/09 10:36:34;;;;;;;12.98;3.65;;;;;;;;;;5198634;27;20033;-84
2021/06/09 10:39:04;;;;;;;14.75;4.30;;;;;;;;;;5166269;27;20572;-86
2021/06/09 10:41:41;;;;;;;12.30;3.62;;;;;;;;;;5205014;27;20094;-85
2021/06/09 10:44:17;;;;;;;15.60;3.75;;;;;;;;;;5161722;27;20365;-85
2021/06/09 10:47:04;;;;;;;17.07;4.17;;;;;;;;;;5178550;27;20045;-86
2021/06/09 10:49:41;;;;;;;13.90;3.62;;;;;;;;;;5192780;27;20705;-83
2021/06/09 10:52:29;;;;;;;10.07;3.20;;;;;;;;;;5159636;27;20768;-88
2021/06/09 10:55:04;;;;;;;11.15;2.72;;;;;;;;;;5200128;27;20066;-83
2021/06/09 10:57:35;;;;;;;12.85;2.80;;;;;;;;;;5194188;27;20069;-84
2021/06/09 11:00:09;;;;;;;11.98;2.55;;;;;;;;;;5178196;27;20034;-82
2021/06/09 11:02:43;;;;;;;7.90;2.47;;;;;;;;;;5201009;27;20097;-84
2021/06/09 11:05:15;;;;;;;17.80;2.37;;;;;;;;;;5177340;27;20031;-85
2021/06/09 11:07:45;;;;;;;14.50;2.37;;;;;;;;;;5180580;27;20391;-84
2021/06/09 11:10:32;;;;;;;15.35;2.33;;;;;;;;;;5182346;27;20374;-83
2021/06/09 11:13:04;;;;;;;11.88;1.92;;;;;;;;;;5203707;27;20023;-83
2021/06/09 11:15:40;;;;;;;10.05;2.20;;;;;;;;;;5200641;27;20078;-81
2021/06/09 11:18:13;;;;;;;8.77;2.00;;;;;;;;;;5166496;27;20359;-85
2021/06/09 11:21:02;;;;;;;9.77;2.03;;;;;;;;;;5194758;27;20211;-88
2021/06/09 11:23:40;;;;;;;10.35;2.22;;;;;;;;;;5181249;27;20054;-85
2021/06/09 11:26:27;;;;;;;11.15;2.33;;;;;;;;;;5183198;27;20069;-84
2021/06/09 11:28:56;;;;;;;7.85;2.30;;;;;;;;;;5202681;27;20022;-85
2021/06/09 11:31:31;;;;;;;10.30;2.40;;;;;;;;;;5202420;27;20361;-85
2021/06/09 11:34:05;;;;;;;7.45;1.98;;;;;;;;;;5192852;27;20042;-83
2021/06/09 11:36:46;;;;;;;9.13;2.15;;;;;;;;;;5219141;27;20068;-84
2021/06/09 11:39:17;;;;;;;8.38;1.85;;;;;;;;;;5206427;27;20029;-85
2021/06/09 11:41:49;;;;;;;6.72;1.70;;;;;;;;;;5202692;27;20361;-83
2021/06/09 11:44:42;;;;;;;11.43;3.08;;;;;;;;;;5202112;27;20022;-87
2021/06/09 11:47:29;;;;;;;7.80;2.87;;;;;;;;;;5198876;27;20368;-85
2021/06/09 11:50:30;;;;;;;7.05;2.10;;;;;;;;;;5183495;27;20065;-85
2021/06/09 11:53:13;;;;;;;6.32;2.20;;;;;;;;;;5226233;27;20018;-83
2021/06/09 11:55:42;;;;;;;5.35;1.92;;;;;;;;;;5199693;27;20062;-86
2021/06/09 11:58:14;;;;;;;5.55;2.12;;;;;;;;;;5206303;27;20031;-86
2021/06/09 12:01:03;;;;;;;7.07;2.33;;;;;;;;;;5203812;27;20041;-85
2021/06/09 12:03:40;;;;;;;11.88;3.20;;;;;;;;;;5207407;27;20068;-85
2021/06/09 12:06:11;;;;;;;11.12;3.10;;;;;;;;;;5204152;27;20058;-89
2021/06/09 12:08:46;;;;;;;9.52;3.10;;;;;;;;;;5184966;27;20429;-84
2021/06/09 12:11:18;;;;;;;7.37;2.53;;;;;;;;;;5190939;27;20376;-84
2021/06/09 12:13:54;;;;;;;13.18;3.40;;;;;;;;;;5209265;27;20022;-84
2021/06/09 12:16:31;;;;;;;10.40;3.53;;;;;;;;;;5188103;27;20030;-84
2021/06/09 12:19:04;;;;;;;11.43;3.45;;;;;;;;;;5199171;27;20373;-84
2021/06/09 12:21:46;;;;;;;13.82;3.53;;;;;;;;;;5207972;27;20026;-86
2021/06/09 12:24:21;;;;;;;14.23;3.55;;;;;;;;;;5212672;27;20048;-86
2021/06/09 12:26:51;;;;;;;10.15;3.03;;;;;;;;;;5201686;27;20464;-84
2021/06/09 12:29:23;;;;;;;10.48;3.00;;;;;;;;;;5224815;27;20472;-85
2021/06/09 12:31:55;;;;;;;14.87;3.08;;;;;;;;;;5204285;27;20484;-86
2021/06/09 12:34:25;;;;;;;12.18;3.90;;;;;;;;;;5208028;27;20356;-87
2021/06/09 12:37:16;;;;;;;10.73;3.83;;;;;;;;;;5204910;27;20072;-86
2021/06/09 12:39:53;;;;;;;11.15;3.10;;;;;;;;;;5222870;27;20103;-86
2021/06/09 12:42:28;;;;;;;15.75;4.05;;;;;;;;;;5173780;27;20038;-84
2021/06/09 12:45:12;;;;;;;16.35;4.05;;;;;;;;;;5184800;27;20065;-85
2021/06/09 12:47:43;;;;;;;13.48;3.75;;;;;;;;;;5197398;27;20084;-86
2021/06/09 12:50:19;;;;;;;12.18;3.53;;;;;;;;;;5218622;27;20129;-83
2021/06/09 12:53:00;;;;;;;11.40;3.35;;;;;;;;;;5221773;27;20211;-83
2021/06/09 12:55:33;;;;;;;13.62;3.17;;;;;;;;;;5223950;27;20022;-85
2021/06/09 12:58:13;;;;;;;15.52;3.80;;;;;;;;;;5191002;27;20026;-86
2021/06/09 13:00:58;;;;;;;10.68;3.33;;;;;;;;;;5205006;27;20023;-86
2021/06/09 13:03:38;;;;;;;10.50;3.35;;;;;;;;;;5223120;27;20029;-86
2021/06/09 13:06:14;;;;;;;12.55;3.10;;;;;;;;;;5202681;27;20057;-85
2021/06/09 13:08:47;;;;;;;12.40;3.35;;;;;;;;;;5223582;27;20026;-83
2021/06/09 13:11:18;;;;;;;8.73;2.73;;;;;;;;;;5225240;27;20030;-87
2021/06/09 13:13:51;;;;;;;11.70;2.33;;;;;;;;;;5225589;27;20072;-86
2021/06/09 13:16:31;;;;;;;11.75;2.95;;;;;;;;;;5187806;27;20542;-83
2021/06/09 13:19:02;;;;;;;6.68;2.08;;;;;;;;;;5225429;27;20063;-82
2021/06/09 13:21:42;;;;;;;8.80;2.55;;;;;;;;;;5198918;27;20034;-83
2021/06/09 13:24:17;;;;;;;7.82;1.90;;;;;;;;;;5202208;27;20092;-82
2021/06/09 13:27:08;;;;;;;5.82;2.15;;;;;;;;;;5183336;27;20054;-84
2021/06/09 13:29:38;;;;;;;13.25;2.17;;;;;;;;;;5222010;27;20055;-84
2021/06/09 13:32:12;;;;;;;15.85;1.98;;;;;;;;;;5182502;27;20058;-86
2021/06/09 13:34:48;;;;;;;19.57;2.20;;;;;;;;;;5201500;27;20056;-83
2021/06/09 13:37:28;;;;;;;34.17;4.18;;;;;;;;;;5198808;27;20054;-86
2021/06/09 13:40:04;;;;;;;12.02;1.80;;;;;;;;;;5201738;27;20022;-83
2021/06/09 13:42:37;;;;;;;27.25;2.67;;;;;;;;;;5185373;27;20296;-85
2021/06/09 13:45:19;;;;;;;13.75;2.50;;;;;;;;;;5187913;27;20080;-86
2021/06/09 13:48:01;;;;;;;26.35;2.45;;;;;;;;;;5207864;27;21406;-84
2021/06/09 13:50:31;;;;;;;14.05;1.70;;;;;;;;;;5221686;27;20445;-84
2021/06/09 13:53:09;;;;;;;14.15;1.77;;;;;;;;;;5221355;27;20029;-87
2021/06/09 13:55:44;;;;;;;9.23;1.70;;;;;;;;;;5223544;27;20037;-90
2021/06/09 13:58:21;;;;;;;17.12;2.42;;;;;;;;;;5219555;27;20042;-83
2021/06/09 14:00:51;;;;;;;32.47;3.80;;;;;;;;;;5222982;27;20033;-82
2021/06/09 14:03:23;;;;;;;46.90;4.70;;;;;;;;;;5222709;27;20057;-82
2021/06/09 14:05:55;;;;;;;12.95;2.35;;;;;;;;;;5205301;27;20064;-83
2021/06/09 14:08:30;;;;;;;11.45;2.30;;;;;;;;;;5183769;27;20066;-85
2021/06/09 14:11:04;;;;;;;10.68;1.92;;;;;;;;;;5221159;27;20080;-85
2021/06/09 14:13:33;;;;;;;14.40;2.80;;;;;;;;;;5200830;27;20087;-83
2021/06/09 14:16:07;;;;;;;11.95;2.20;;;;;;;;;;5185046;27;20451;-86
2021/06/09 14:18:48;;;;;;;19.58;3.12;;;;;;;;;;5186728;27;20069;-83
2021/06/09 14:21:20;;;;;;;11.60;2.05;;;;;;;;;;5204980;27;20043;-88
2021/06/09 14:23:50;;;;;;;103.62;10.65;;;;;;;;;;5197531;27;20053;-84
2021/06/09 14:26:22;;;;;;;113.82;11.65;;;;;;;;;;5183614;27;20061;-82
2021/06/09 14:28:54;;;;;;;72.03;8.27;;;;;;;;;;5203094;27;20416;-85
2021/06/09 14:31:26;;;;;;;83.45;7.68;;;;;;;;;;5203191;27;20037;-83
2021/06/09 14:34:13;;;;;;;24.75;4.22;;;;;;;;;;5205395;27;20048;-81
2021/06/09 14:36:51;;;;;;;15.73;2.83;;;;;;;;;;5208357;27;20065;-83
2021/06/09 14:39:23;;;;;;;8.00;1.95;;;;;;;;;;5205824;27;20034;-83
2021/06/09 14:41:52;;;;;;;14.93;2.10;;;;;;;;;;5199649;27;20069;-85
2021/06/09 14:44:46;;;;;;;9.20;1.80;;;;;;;;;;5201819;27;20409;-83
2021/06/09 14:47:34;;;;;;;8.13;1.55;;;;;;;;;;5208812;27;20370;-83
2021/06/09 14:50:06;;;;;;;7.85;2.08;;;;;;;;;;5200879;27;20052;-86
2021/06/09 14:52:39;;;;;;;6.87;1.65;;;;;;;;;;5222016;27;20037;-81
2021/06/09 14:55:15;;;;;;;5.55;1.50;;;;;;;;;;5224822;27;20022;-83
2021/06/09 14:57:46;;;;;;;4.40;1.55;;;;;;;;;;5203864;27;20433;-83
2021/06/09 15:00:21;;;;;;;6.72;1.77;;;;;;;;;;5196920;27;20378;-84
2021/06/09 15:02:53;;;;;;;8.38;1.90;;;;;;;;;;5198657;27;20054;-84
2021/06/09 15:05:25;;;;;;;7.32;1.67;;;;;;;;;;5217752;27;20397;-83
2021/06/09 15:07:55;;;;;;;7.57;1.60;;;;;;;;;;5183151;27;20472;-85
2021/06/09 15:10:26;;;;;;;9.00;1.77;;;;;;;;;;5216670;27;20022;-84
2021/06/09 15:12:58;;;;;;;14.10;2.07;;;;;;;;;;5219207;27;20045;-84
2021/06/09 15:15:30;;;;;;;8.07;1.92;;;;;;;;;;5221536;27;20049;-84
2021/06/09 15:18:00;;;;;;;7.07;2.03;;;;;;;;;;5196094;27;20057;-85
2021/06/09 15:20:38;;;;;;;7.50;2.20;;;;;;;;;;5203914;27;20018;-84